Omega, Oklahoma
Current Conditions -  °F | °C
As of 12:35 PM on Saturday 25 Oct 2014 (Local Time) from KJWG Reporting Station
Clear Clear  
Wind Chill: 27°   Ceiling: Unl
Heat Index: 28°   Visibility: 10mi
Dew Point: 17°   Wind: 8mph
Humidity: 53%   Direction: 230°SW
Pressure: 30.1"   Gusts: NA
Location:  35.87°N, 98.2°W
Report Text: KJWG 251735Z AUTO 23007KT 10SM CLR 27/17 A3010 RMK AO2 T02740170
Loading
Personal Weather Stations






























Interactive Weather Map
Tropical Storm Tracking
New forecast layout! Learn more

10-Day Weather Forecast

Advertisements
Track Severe Weather on mobile